sensor_id;sensor_type;location;lat;lon;timestamp;pressure;altitude;pressure_sealevel;temperature;humidity
11212;BME280;5663;50.864;12.096;2023-04-06T00:00:00;99770.13;;;3.60;61.47
11212;BME280;5663;50.864;12.096;2023-04-06T00:02:28;99769.28;;;3.58;61.87
11212;BME280;5663;50.864;12.096;2023-04-06T00:04:56;99770.22;;;3.55;61.50
11212;BME280;5663;50.864;12.096;2023-04-06T00:07:24;99766.00;;;3.51;62.03
11212;BME280;5663;50.864;12.096;2023-04-06T00:09:57;99768.53;;;3.53;61.57
11212;BME280;5663;50.864;12.096;2023-04-06T00:12:30;99767.69;;;3.51;61.91
11212;BME280;5663;50.864;12.096;2023-04-06T00:14:59;99766.84;;;3.50;61.74
11212;BME280;5663;50.864;12.096;2023-04-06T00:17:28;99749.03;;;3.38;61.53
11212;BME280;5663;50.864;12.096;2023-04-06T00:19:59;99762.53;;;3.51;62.07
11212;BME280;5663;50.864;12.096;2023-04-06T00:22:39;99767.72;;;3.49;61.45
11212;BME280;5663;50.864;12.096;2023-04-06T00:25:08;99772.06;;;3.45;61.73
11212;BME280;5663;50.864;12.096;2023-04-06T00:27:45;99766.13;;;3.43;61.81
11212;BME280;5663;50.864;12.096;2023-04-06T00:30:14;99766.13;;;3.42;62.24
11212;BME280;5663;50.864;12.096;2023-04-06T00:32:44;99760.13;;;3.41;61.69
11212;BME280;5663;50.864;12.096;2023-04-06T00:35:12;99754.19;;;3.39;61.69
11212;BME280;5663;50.864;12.096;2023-04-06T00:37:41;99761.06;;;3.37;62.35
11212;BME280;5663;50.864;12.096;2023-04-06T00:40:10;99755.13;;;3.32;62.02
11212;BME280;5663;50.864;12.096;2023-04-06T00:42:41;99760.25;;;3.35;62.03
11212;BME280;5663;50.864;12.096;2023-04-06T00:45:13;99758.59;;;3.31;62.08
11212;BME280;5663;50.864;12.096;2023-04-06T00:47:43;99758.59;;;3.31;62.49
11212;BME280;5663;50.864;12.096;2023-04-06T00:50:12;99751.72;;;3.30;62.22
11212;BME280;5663;50.864;12.096;2023-04-06T00:52:43;99749.19;;;3.29;62.25
11212;BME280;5663;50.864;12.096;2023-04-06T00:58:31;99746.69;;;3.24;62.25
11212;BME280;5663;50.864;12.096;2023-04-06T01:01:02;99745.88;;;3.20;62.62
11212;BME280;5663;50.864;12.096;2023-04-06T01:03:31;99745.09;;;3.17;62.29
11212;BME280;5663;50.864;12.096;2023-04-06T01:06:02;99745.97;;;3.14;62.38
11212;BME280;5663;50.864;12.096;2023-04-06T01:08:38;99723.09;;;2.97;62.85
11212;BME280;5663;50.864;12.096;2023-04-06T01:11:06;99745.16;;;3.11;62.36
11212;BME280;5663;50.864;12.096;2023-04-06T01:13:42;99730.00;;;2.95;62.54
11212;BME280;5663;50.864;12.096;2023-04-06T01:16:12;99752.06;;;3.09;62.85
11212;BME280;5663;50.864;12.096;2023-04-06T01:18:40;99740.94;;;3.08;62.58
11212;BME280;5663;50.864;12.096;2023-04-06T01:21:14;99750.38;;;3.08;62.50
11212;BME280;5663;50.864;12.096;2023-04-06T01:24:04;99741.78;;;3.09;62.31
11212;BME280;5663;50.864;12.096;2023-04-06T01:26:52;99729.03;;;3.01;62.31
11212;BME280;5663;50.864;12.096;2023-04-06T01:29:40;99719.75;;;2.92;62.65
11212;BME280;5663;50.864;12.096;2023-04-06T01:32:30;99738.44;;;3.04;62.49
11212;BME280;5663;50.864;12.096;2023-04-06T01:35:18;99735.81;;;3.07;62.48
11212;BME280;5663;50.864;12.096;2023-04-06T01:38:00;99740.94;;;3.08;62.41
11212;BME280;5663;50.864;12.096;2023-04-06T01:40:32;99739.22;;;3.09;62.48
11212;BME280;5663;50.864;12.096;2023-04-06T01:43:06;99740.91;;;3.10;62.49
11212;BME280;5663;50.864;12.096;2023-04-06T01:45:54;99728.97;;;3.07;62.27
11212;BME280;5663;50.864;12.096;2023-04-06T01:48:41;99738.28;;;3.13;62.59
11212;BME280;5663;50.864;12.096;2023-04-06T01:51:29;99741.75;;;3.12;62.66
11212;BME280;5663;50.864;12.096;2023-04-06T01:53:57;99738.28;;;3.13;63.15
11212;BME280;5663;50.864;12.096;2023-04-06T01:56:28;99736.59;;;3.12;62.90
11212;BME280;5663;50.864;12.096;2023-04-06T01:58:57;99734.88;;;3.12;63.05
11212;BME280;5663;50.864;12.096;2023-04-06T02:01:27;99733.19;;;3.10;63.16
11212;BME280;5663;50.864;12.096;2023-04-06T02:03:55;99734.16;;;3.04;63.43
11212;BME280;5663;50.864;12.096;2023-04-06T02:06:24;99732.38;;;3.08;63.66
11212;BME280;5663;50.864;12.096;2023-04-06T02:08:52;99722.91;;;3.10;63.71
11212;BME280;5663;50.864;12.096;2023-04-06T02:11:20;99738.34;;;3.10;63.89
11212;BME280;5663;50.864;12.096;2023-04-06T02:13:50;99724.59;;;3.11;64.04
11212;BME280;5663;50.864;12.096;2023-04-06T02:16:18;99726.25;;;3.15;63.74
11212;BME280;5663;50.864;12.096;2023-04-06T02:18:45;99727.94;;;3.17;63.83
11212;BME280;5663;50.864;12.096;2023-04-06T02:21:13;99721.91;;;3.18;64.03
11212;BME280;5663;50.864;12.096;2023-04-06T02:23:46;99721.03;;;3.21;63.64
11212;BME280;5663;50.864;12.096;2023-04-06T02:26:14;99710.75;;;3.21;63.29
11212;BME280;5663;50.864;12.096;2023-04-06T02:28:42;99717.53;;;3.25;63.73
11212;BME280;5663;50.864;12.096;2023-04-06T02:31:11;99716.66;;;3.26;63.78
11212;BME280;5663;50.864;12.096;2023-04-06T02:33:40;99723.53;;;3.27;63.55
11212;BME280;5663;50.864;12.096;2023-04-06T02:36:08;99714.94;;;3.27;63.58
11212;BME280;5663;50.864;12.096;2023-04-06T02:38:36;99717.53;;;3.25;63.75
11212;BME280;5663;50.864;12.096;2023-04-06T02:41:05;99720.09;;;3.27;63.51
11212;BME280;5663;50.864;12.096;2023-04-06T02:43:32;99719.22;;;3.26;63.45
11212;BME280;5663;50.864;12.096;2023-04-06T02:46:01;99715.81;;;3.27;63.14
11212;BME280;5663;50.864;12.096;2023-04-06T02:48:31;99719.22;;;3.26;63.05
11212;BME280;5663;50.864;12.096;2023-04-06T02:51:02;99719.22;;;3.26;63.59
11212;BME280;5663;50.864;12.096;2023-04-06T02:53:29;99722.72;;;3.24;63.50
11212;BME280;5663;50.864;12.096;2023-04-06T02:55:57;99720.16;;;3.22;63.64
11212;BME280;5663;50.864;12.096;2023-04-06T02:58:25;99725.41;;;3.16;63.75
11212;BME280;5663;50.864;12.096;2023-04-06T03:00:53;99722.84;;;3.16;63.36
11212;BME280;5663;50.864;12.096;2023-04-06T03:03:21;99722.88;;;3.13;63.86
11212;BME280;5663;50.864;12.096;2023-04-06T03:05:51;99719.53;;;3.08;63.54
11212;BME280;5663;50.864;12.096;2023-04-06T03:08:20;99727.25;;;3.06;63.70
11212;BME280;5663;50.864;12.096;2023-04-06T03:10:48;99728.16;;;3.02;63.66
11212;BME280;5663;50.864;12.096;2023-04-06T03:13:16;99712.03;;;2.92;63.12
11212;BME280;5663;50.864;12.096;2023-04-06T03:15:44;99727.41;;;2.95;63.40
11212;BME280;5663;50.864;12.096;2023-04-06T03:18:12;99731.75;;;2.92;63.46
11212;BME280;5663;50.864;12.096;2023-04-06T03:20:40;99729.28;;;2.83;63.65
11212;BME280;5663;50.864;12.096;2023-04-06T03:23:11;99718.38;;;2.67;63.60
11212;BME280;5663;50.864;12.096;2023-04-06T03:25:39;99737.09;;;2.75;63.70
11212;BME280;5663;50.864;12.096;2023-04-06T03:28:07;99730.31;;;2.71;63.73
11212;BME280;5663;50.864;12.096;2023-04-06T03:30:35;99736.34;;;2.67;63.73
11212;BME280;5663;50.864;12.096;2023-04-06T03:33:03;99733.00;;;2.62;63.76
11212;BME280;5663;50.864;12.096;2023-04-06T03:35:31;99725.34;;;2.57;64.01
11212;BME280;5663;50.864;12.096;2023-04-06T03:37:58;99733.09;;;2.54;64.27
11212;BME280;5663;50.864;12.096;2023-04-06T03:40:28;99736.56;;;2.50;64.10
11212;BME280;5663;50.864;12.096;2023-04-06T03:42:56;99732.34;;;2.46;64.44
11212;BME280;5663;50.864;12.096;2023-04-06T03:45:24;99744.34;;;2.42;64.20
11212;BME280;5663;50.864;12.096;2023-04-06T03:47:51;99735.09;;;2.32;64.45
11212;BME280;5663;50.864;12.096;2023-04-06T03:50:20;99746.13;;;2.37;64.62
11212;BME280;5663;50.864;12.096;2023-04-06T03:52:47;99752.97;;;2.35;64.78
11212;BME280;5663;50.864;12.096;2023-04-06T03:55:15;99753.03;;;2.32;64.85
11212;BME280;5663;50.864;12.096;2023-04-06T03:57:47;99752.22;;;2.29;64.83
11212;BME280;5663;50.864;12.096;2023-04-06T04:00:16;99757.34;;;2.27;64.94
11212;BME280;5663;50.864;12.096;2023-04-06T04:02:44;99745.44;;;2.25;64.79
11212;BME280;5663;50.864;12.096;2023-04-06T04:05:11;99759.97;;;2.24;64.75
11212;BME280;5663;50.864;12.096;2023-04-06T04:07:39;99754.00;;;2.22;64.92
11212;BME280;5663;50.864;12.096;2023-04-06T04:10:08;99755.72;;;2.21;64.96
11212;BME280;5663;50.864;12.096;2023-04-06T04:12:36;99737.03;;;2.10;65.07
11212;BME280;5663;50.864;12.096;2023-04-06T04:15:07;99754.94;;;2.16;64.87
11212;BME280;5663;50.864;12.096;2023-04-06T04:17:35;99725.22;;;1.94;65.07
11212;BME280;5663;50.864;12.096;2023-04-06T04:20:03;99750.75;;;2.06;65.04
11212;BME280;5663;50.864;12.096;2023-04-06T04:22:31;99746.53;;;2.01;65.14
11212;BME280;5663;50.864;12.096;2023-04-06T04:24:59;99750.81;;;2.00;65.29
11212;BME280;5663;50.864;12.096;2023-04-06T04:27:27;99749.16;;;1.96;65.20
11212;BME280;5663;50.864;12.096;2023-04-06T04:29:55;99751.75;;;1.91;65.30
11212;BME280;5663;50.864;12.096;2023-04-06T04:32:25;99756.91;;;1.88;65.51
11212;BME280;5663;50.864;12.096;2023-04-06T04:34:53;99756.94;;;1.85;65.48
11212;BME280;5663;50.864;12.096;2023-04-06T04:37:22;99752.69;;;1.83;65.47
11212;BME280;5663;50.864;12.096;2023-04-06T04:39:49;99754.44;;;1.81;65.42
11212;BME280;5663;50.864;12.096;2023-04-06T04:42:17;99758.72;;;1.77;65.48
11212;BME280;5663;50.864;12.096;2023-04-06T04:44:45;99763.88;;;1.74;65.77
11212;BME280;5663;50.864;12.096;2023-04-06T04:47:13;99720.53;;;1.46;65.54
11212;BME280;5663;50.864;12.096;2023-04-06T04:49:42;99763.03;;;1.70;65.71
11212;BME280;5663;50.864;12.096;2023-04-06T04:52:10;99623.72;;;0.85;65.64
11212;BME280;5663;50.864;12.096;2023-04-06T04:54:38;99769.88;;;1.73;65.56
11212;BME280;5663;50.864;12.096;2023-04-06T04:57:08;99735.03;;;1.47;65.74
11212;BME280;5663;50.864;12.096;2023-04-06T04:59:36;99765.63;;;1.72;65.58
11212;BME280;5663;50.864;12.096;2023-04-06T05:02:03;99769.03;;;1.71;65.47
11212;BME280;5663;50.864;12.096;2023-04-06T05:04:33;99769.03;;;1.71;65.52
11212;BME280;5663;50.864;12.096;2023-04-06T05:07:09;99766.44;;;1.74;65.47
11212;BME280;5663;50.864;12.096;2023-04-06T05:09:38;99767.31;;;1.73;65.48
11212;BME280;5663;50.864;12.096;2023-04-06T05:12:06;99765.63;;;1.69;65.53
11212;BME280;5663;50.864;12.096;2023-04-06T05:14:34;99771.59;;;1.72;65.43
11212;BME280;5663;50.864;12.096;2023-04-06T05:17:02;99772.44;;;1.73;65.71
11212;BME280;5663;50.864;12.096;2023-04-06T05:19:31;99769.88;;;1.71;65.68
11212;BME280;5663;50.864;12.096;2023-04-06T05:21:58;99776.72;;;1.71;65.85
11212;BME280;5663;50.864;12.096;2023-04-06T05:24:28;99776.72;;;1.72;65.74
11212;BME280;5663;50.864;12.096;2023-04-06T05:26:56;99781.81;;;1.74;65.87
11212;BME280;5663;50.864;12.096;2023-04-06T05:29:24;99786.09;;;1.77;65.62
11212;BME280;5663;50.864;12.096;2023-04-06T05:31:52;99782.63;;;1.79;65.85
11212;BME280;5663;50.864;12.096;2023-04-06T05:34:20;99776.59;;;1.83;65.67
11212;BME280;5663;50.864;12.096;2023-04-06T05:36:48;99784.28;;;1.86;65.72
11212;BME280;5663;50.864;12.096;2023-04-06T05:39:17;99775.66;;;1.93;65.54
11212;BME280;5663;50.864;12.096;2023-04-06T05:41:46;99763.75;;;1.89;65.51
11212;BME280;5663;50.864;12.096;2023-04-06T05:44:14;99784.09;;;2.08;65.34
11212;BME280;5663;50.864;12.096;2023-04-06T05:46:42;99784.88;;;2.16;65.39
11212;BME280;5663;50.864;12.096;2023-04-06T05:49:11;99783.91;;;2.23;65.12
11212;BME280;5663;50.864;12.096;2023-04-06T05:51:39;99786.41;;;2.31;64.91
11212;BME280;5663;50.864;12.096;2023-04-06T05:54:07;99780.41;;;2.33;64.63
11212;BME280;5663;50.864;12.096;2023-04-06T05:56:35;99788.88;;;2.41;64.85
11212;BME280;5663;50.864;12.096;2023-04-06T05:59:05;99779.41;;;2.45;64.46
11212;BME280;5663;50.864;12.096;2023-04-06T06:01:32;99773.47;;;2.41;64.51
11212;BME280;5663;50.864;12.096;2023-04-06T06:04:01;99703.84;;;1.96;64.52
11212;BME280;5663;50.864;12.096;2023-04-06T06:06:29;99784.44;;;2.54;64.53
11212;BME280;5663;50.864;12.096;2023-04-06T06:08:57;99782.66;;;2.61;64.50
11212;BME280;5663;50.864;12.096;2023-04-06T06:11:26;99785.16;;;2.65;64.61
11212;BME280;5663;50.864;12.096;2023-04-06T06:13:54;99785.06;;;2.73;64.34
11212;BME280;5663;50.864;12.096;2023-04-06T06:16:24;99783.28;;;2.78;64.02
11212;BME280;5663;50.864;12.096;2023-04-06T06:18:52;99788.31;;;2.86;63.93
11212;BME280;5663;50.864;12.096;2023-04-06T06:21:20;99793.41;;;2.90;63.92
11212;BME280;5663;50.864;12.096;2023-04-06T06:23:48;99789.06;;;2.95;63.54
11212;BME280;5663;50.864;12.096;2023-04-06T06:26:18;99785.53;;;3.03;63.58
11212;BME280;5663;50.864;12.096;2023-04-06T06:28:47;99790.56;;;3.12;62.70
11212;BME280;5663;50.864;12.096;2023-04-06T06:31:16;99788.81;;;3.15;62.92
11212;BME280;5663;50.864;12.096;2023-04-06T06:33:48;99787.84;;;3.21;62.34
11212;BME280;5663;50.864;12.096;2023-04-06T06:36:18;99785.22;;;3.27;61.99
11212;BME280;5663;50.864;12.096;2023-04-06T06:38:45;99777.41;;;3.33;61.46
11212;BME280;5663;50.864;12.096;2023-04-06T06:41:13;99787.50;;;3.45;61.73
11212;BME280;5663;50.864;12.096;2023-04-06T06:43:41;99788.13;;;3.58;60.96
11212;BME280;5663;50.864;12.096;2023-04-06T06:46:09;99785.97;;;3.88;60.45
11212;BME280;5663;50.864;12.096;2023-04-06T06:48:37;99779.47;;;4.15;59.56
11212;BME280;5663;50.864;12.096;2023-04-06T06:51:06;99786.72;;;4.41;59.35
11212;BME280;5663;50.864;12.096;2023-04-06T06:53:36;99788.94;;;4.58;59.57
11212;BME280;5663;50.864;12.096;2023-04-06T06:56:04;99785.50;;;4.59;58.99
11212;BME280;5663;50.864;12.096;2023-04-06T06:58:32;99787.06;;;4.66;59.04
11212;BME280;5663;50.864;12.096;2023-04-06T07:01:00;99784.31;;;4.75;58.33
11212;BME280;5663;50.864;12.096;2023-04-06T07:03:28;99779.50;;;4.99;58.30
11212;BME280;5663;50.864;12.096;2023-04-06T07:05:56;99776.31;;;5.26;57.24
11212;BME280;5663;50.864;12.096;2023-04-06T07:08:26;99789.94;;;5.33;57.03
11212;BME280;5663;50.864;12.096;2023-04-06T07:10:54;99785.59;;;5.35;56.97
11212;BME280;5663;50.864;12.096;2023-04-06T07:13:23;99782.75;;;5.46;56.92
11212;BME280;5663;50.864;12.096;2023-04-06T07:15:52;99786.84;;;5.56;56.45
11212;BME280;5663;50.864;12.096;2023-04-06T07:18:23;99786.78;;;5.57;56.58
11212;BME280;5663;50.864;12.096;2023-04-06T07:20:50;99780.72;;;5.60;56.15
11212;BME280;5663;50.864;12.096;2023-04-06T07:23:18;99778.97;;;5.60;55.90
11212;BME280;5663;50.864;12.096;2023-04-06T07:25:48;99778.06;;;5.63;56.24
11212;BME280;5663;50.864;12.096;2023-04-06T07:28:18;99786.38;;;5.74;56.50
11212;BME280;5663;50.864;12.096;2023-04-06T07:30:46;99785.34;;;5.81;56.32
11212;BME280;5663;50.864;12.096;2023-04-06T07:33:13;99785.03;;;5.95;56.19
11212;BME280;5663;50.864;12.096;2023-04-06T07:35:41;99788.22;;;6.05;56.26
11212;BME280;5663;50.864;12.096;2023-04-06T07:38:10;99785.31;;;6.17;55.82
11212;BME280;5663;50.864;12.096;2023-04-06T07:40:37;99747.63;;;6.10;55.72
11212;BME280;5663;50.864;12.096;2023-04-06T07:43:06;99783.78;;;6.43;55.55
11212;BME280;5663;50.864;12.096;2023-04-06T07:45:35;99759.78;;;6.39;55.55
11212;BME280;5663;50.864;12.096;2023-04-06T07:48:03;99785.00;;;6.60;55.38
11212;BME280;5663;50.864;12.096;2023-04-06T07:50:30;99787.25;;;6.73;54.25
11212;BME280;5663;50.864;12.096;2023-04-06T07:52:58;99778.22;;;6.87;54.43
11212;BME280;5663;50.864;12.096;2023-04-06T07:55:26;99752.28;;;6.90;53.97
11212;BME280;5663;50.864;12.096;2023-04-06T07:57:54;99777.19;;;7.21;53.87
11212;BME280;5663;50.864;12.096;2023-04-06T08:00:24;99741.25;;;7.12;53.68
11212;BME280;5663;50.864;12.096;2023-04-06T08:02:52;99770.31;;;7.48;54.09
11212;BME280;5663;50.864;12.096;2023-04-06T08:05:20;99775.00;;;7.63;52.51
11212;BME280;5663;50.864;12.096;2023-04-06T08:07:48;99771.94;;;7.77;52.98
11212;BME280;5663;50.864;12.096;2023-04-06T08:10:16;99767.25;;;7.88;52.06
11212;BME280;5663;50.864;12.096;2023-04-06T08:12:44;99771.03;;;8.05;52.13
11212;BME280;5663;50.864;12.096;2023-04-06T08:15:11;99768.81;;;8.19;51.61
11212;BME280;5663;50.864;12.096;2023-04-06T08:17:41;99768.38;;;8.31;50.68
11212;BME280;5663;50.864;12.096;2023-04-06T08:20:10;99772.44;;;8.40;50.26
11212;BME280;5663;50.864;12.096;2023-04-06T08:22:37;99766.06;;;8.49;49.62
11212;BME280;5663;50.864;12.096;2023-04-06T08:25:07;99763.84;;;8.63;51.11
11212;BME280;5663;50.864;12.096;2023-04-06T08:27:35;99764.03;;;8.80;50.99
11212;BME280;5663;50.864;12.096;2023-04-06T08:30:04;99766.91;;;8.96;49.95
11212;BME280;5663;50.864;12.096;2023-04-06T08:32:31;99753.53;;;9.07;49.74
11212;BME280;5663;50.864;12.096;2023-04-06T08:35:01;99758.13;;;9.22;49.45
11212;BME280;5663;50.864;12.096;2023-04-06T08:37:29;99759.34;;;9.35;49.26
11212;BME280;5663;50.864;12.096;2023-04-06T08:39:57;99760.66;;;9.46;48.09
11212;BME280;5663;50.864;12.096;2023-04-06T08:42:26;99754.91;;;9.59;47.78
11212;BME280;5663;50.864;12.096;2023-04-06T08:44:56;99659.03;;;9.12;47.13
11212;BME280;5663;50.864;12.096;2023-04-06T08:47:24;99753.97;;;9.82;47.64
11212;BME280;5663;50.864;12.096;2023-04-06T08:49:52;99759.56;;;9.94;47.31
11212;BME280;5663;50.864;12.096;2023-04-06T08:52:22;99757.34;;;10.05;47.55
11212;BME280;5663;50.864;12.096;2023-04-06T08:54:52;99756.03;;;10.15;46.47
11212;BME280;5663;50.864;12.096;2023-04-06T08:57:21;99757.19;;;10.30;45.72
11212;BME280;5663;50.864;12.096;2023-04-06T08:59:49;99751.34;;;10.44;45.51
11212;BME280;5663;50.864;12.096;2023-04-06T09:02:18;99731.97;;;10.51;44.66
11212;BME280;5663;50.864;12.096;2023-04-06T09:04:48;99752.38;;;10.79;44.14
11212;BME280;5663;50.864;12.096;2023-04-06T09:07:16;99738.81;;;10.91;43.34
11212;BME280;5663;50.864;12.096;2023-04-06T09:09:46;99742.50;;;11.23;43.33
11212;BME280;5663;50.864;12.096;2023-04-06T09:12:25;99747.38;;;11.48;39.06
11212;BME280;5663;50.864;12.096;2023-04-06T09:14:54;99739.31;;;11.53;39.56
11212;BME280;5663;50.864;12.096;2023-04-06T09:17:24;99739.81;;;11.78;40.18
11212;BME280;5663;50.864;12.096;2023-04-06T09:19:52;99736.22;;;11.98;39.39
11212;BME280;5663;50.864;12.096;2023-04-06T09:22:20;99738.13;;;12.12;39.13
11212;BME280;5663;50.864;12.096;2023-04-06T09:24:51;99710.72;;;12.05;36.51
11212;BME280;5663;50.864;12.096;2023-04-06T09:27:30;99720.25;;;12.22;38.31
11212;BME280;5663;50.864;12.096;2023-04-06T09:30:04;99734.91;;;12.57;37.12
11212;BME280;5663;50.864;12.096;2023-04-06T09:32:32;99726.66;;;12.65;37.07
11212;BME280;5663;50.864;12.096;2023-04-06T09:35:08;99736.25;;;12.80;36.87
11212;BME280;5663;50.864;12.096;2023-04-06T09:37:36;99719.94;;;12.93;35.62
11212;BME280;5663;50.864;12.096;2023-04-06T09:40:08;99730.53;;;12.90;34.51
11212;BME280;5663;50.864;12.096;2023-04-06T09:42:36;99714.47;;;12.97;35.36
11212;BME280;5663;50.864;12.096;2023-04-06T09:45:06;99711.44;;;13.05;34.21
11212;BME280;5663;50.864;12.096;2023-04-06T09:47:36;99719.69;;;13.13;34.52
11212;BME280;5663;50.864;12.096;2023-04-06T09:50:07;99718.09;;;13.26;35.26
11212;BME280;5663;50.864;12.096;2023-04-06T09:52:40;99726.47;;;13.47;34.80
11212;BME280;5663;50.864;12.096;2023-04-06T09:55:10;99725.16;;;13.70;35.43
11212;BME280;5663;50.864;12.096;2023-04-06T09:57:44;99719.03;;;14.00;35.10
11212;BME280;5663;50.864;12.096;2023-04-06T10:00:16;99730.09;;;14.19;33.71
11212;BME280;5663;50.864;12.096;2023-04-06T10:02:51;99720.97;;;14.41;34.66
11212;BME280;5663;50.864;12.096;2023-04-06T10:05:29;99719.25;;;14.40;33.75
11212;BME280;5663;50.864;12.096;2023-04-06T10:08:03;99706.31;;;14.52;33.71
11212;BME280;5663;50.864;12.096;2023-04-06T10:10:35;99707.94;;;14.68;33.56
11212;BME280;5663;50.864;12.096;2023-04-06T10:13:04;99689.91;;;14.77;33.16
11212;BME280;5663;50.864;12.096;2023-04-06T10:15:32;99703.88;;;15.05;33.47
11212;BME280;5663;50.864;12.096;2023-04-06T10:18:02;99705.28;;;15.23;33.87
11212;BME280;5663;50.864;12.096;2023-04-06T10:20:35;99705.44;;;15.35;33.09
11212;BME280;5663;50.864;12.096;2023-04-06T10:23:09;99701.66;;;15.39;33.00
11212;BME280;5663;50.864;12.096;2023-04-06T10:25:53;99704.81;;;15.44;30.22
11212;BME280;5663;50.864;12.096;2023-04-06T10:28:22;99698.03;;;15.41;31.35
11212;BME280;5663;50.864;12.096;2023-04-06T10:30:57;99705.91;;;15.54;31.02
11212;BME280;5663;50.864;12.096;2023-04-06T10:33:26;99695.94;;;15.59;32.25
11212;BME280;5663;50.864;12.096;2023-04-06T10:35:54;99702.63;;;15.77;32.06
11212;BME280;5663;50.864;12.096;2023-04-06T10:38:33;99699.06;;;15.79;28.21
11212;BME280;5663;50.864;12.096;2023-04-06T10:41:08;99632.41;;;15.16;29.96
11212;BME280;5663;50.864;12.096;2023-04-06T10:43:39;99688.38;;;15.42;30.70
11212;BME280;5663;50.864;12.096;2023-04-06T10:46:09;99696.50;;;15.64;31.79
11212;BME280;5663;50.864;12.096;2023-04-06T10:48:37;99687.75;;;15.91;33.39
11212;BME280;5663;50.864;12.096;2023-04-06T10:51:10;99682.09;;;16.10;32.19
11212;BME280;5663;50.864;12.096;2023-04-06T10:53:40;99679.88;;;16.29;32.57
11212;BME280;5663;50.864;12.096;2023-04-06T10:56:14;99676.56;;;16.51;31.90
11212;BME280;5663;50.864;12.096;2023-04-06T10:58:46;99671.19;;;16.65;30.69
11212;BME280;5663;50.864;12.096;2023-04-06T11:01:15;99655.06;;;16.46;30.71
11212;BME280;5663;50.864;12.096;2023-04-06T11:03:45;99631.88;;;16.40;31.55
11212;BME280;5663;50.864;12.096;2023-04-06T11:06:23;99671.66;;;16.46;30.72
11212;BME280;5663;50.864;12.096;2023-04-06T11:08:51;99676.81;;;16.48;30.93
11212;BME280;5663;50.864;12.096;2023-04-06T11:11:22;99609.25;;;16.13;30.88
11212;BME280;5663;50.864;12.096;2023-04-06T11:13:53;99655.03;;;16.59;30.49
11212;BME280;5663;50.864;12.096;2023-04-06T11:16:22;99606.47;;;16.27;30.44
11212;BME280;5663;50.864;12.096;2023-04-06T11:18:52;99654.06;;;16.72;30.68
11212;BME280;5663;50.864;12.096;2023-04-06T11:21:33;99659.13;;;16.99;30.65
11212;BME280;5663;50.864;12.096;2023-04-06T11:24:06;99648.38;;;17.27;30.23
11212;BME280;5663;50.864;12.096;2023-04-06T11:26:41;99653.66;;;17.38;30.58
11212;BME280;5663;50.864;12.096;2023-04-06T11:29:10;99650.13;;;17.50;30.34
11212;BME280;5663;50.864;12.096;2023-04-06T11:31:46;99642.47;;;17.58;30.75
11212;BME280;5663;50.864;12.096;2023-04-06T11:34:17;99645.59;;;17.63;30.48
11212;BME280;5663;50.864;12.096;2023-04-06T11:36:48;99641.47;;;17.72;30.42
11212;BME280;5663;50.864;12.096;2023-04-06T11:39:19;99626.31;;;17.76;30.58
11212;BME280;5663;50.864;12.096;2023-04-06T11:41:51;99644.38;;;17.91;29.33
11212;BME280;5663;50.864;12.096;2023-04-06T11:44:33;99636.25;;;18.06;29.57
11212;BME280;5663;50.864;12.096;2023-04-06T11:47:07;99624.75;;;18.18;29.46
11212;BME280;5663;50.864;12.096;2023-04-06T11:49:38;99625.84;;;18.15;27.94
11212;BME280;5663;50.864;12.096;2023-04-06T11:52:15;99624.50;;;17.98;29.59
11212;BME280;5663;50.864;12.096;2023-04-06T11:54:48;99623.91;;;18.06;29.39
11212;BME280;5663;50.864;12.096;2023-04-06T11:57:20;99592.84;;;18.11;29.57
11212;BME280;5663;50.864;12.096;2023-04-06T11:59:50;99618.88;;;18.37;28.60
11212;BME280;5663;50.864;12.096;2023-04-06T12:02:18;99618.16;;;18.46;28.99
11212;BME280;5663;50.864;12.096;2023-04-06T12:04:47;99617.22;;;18.36;27.41
11212;BME280;5663;50.864;12.096;2023-04-06T12:07:17;99618.16;;;18.35;28.13
11212;BME280;5663;50.864;12.096;2023-04-06T12:09:45;99606.41;;;18.39;27.30
11212;BME280;5663;50.864;12.096;2023-04-06T12:12:15;99603.53;;;18.42;27.96
11212;BME280;5663;50.864;12.096;2023-04-06T12:14:48;99589.91;;;18.48;28.16
11212;BME280;5663;50.864;12.096;2023-04-06T12:17:21;99600.91;;;18.42;28.02
11212;BME280;5663;50.864;12.096;2023-04-06T12:19:51;99598.50;;;18.50;29.31
11212;BME280;5663;50.864;12.096;2023-04-06T12:22:20;99595.75;;;18.52;26.80
11212;BME280;5663;50.864;12.096;2023-04-06T12:24:50;99604.06;;;18.25;28.03
11212;BME280;5663;50.864;12.096;2023-04-06T12:27:18;99595.44;;;18.22;28.17
11212;BME280;5663;50.864;12.096;2023-04-06T12:29:48;99601.66;;;18.10;28.42
11212;BME280;5663;50.864;12.096;2023-04-06T12:32:16;99592.84;;;18.11;27.34
11212;BME280;5663;50.864;12.096;2023-04-06T12:34:47;99569.00;;;18.02;27.69
11212;BME280;5663;50.864;12.096;2023-04-06T12:37:15;99587.53;;;18.22;27.78
11212;BME280;5663;50.864;12.096;2023-04-06T12:39:43;99590.38;;;18.42;29.01
11212;BME280;5663;50.864;12.096;2023-04-06T12:42:12;99586.28;;;18.60;28.03
11212;BME280;5663;50.864;12.096;2023-04-06T12:44:41;99587.31;;;18.69;27.45
11212;BME280;5663;50.864;12.096;2023-04-06T12:47:13;99581.97;;;18.70;28.65
11212;BME280;5663;50.864;12.096;2023-04-06T12:49:43;99588.16;;;18.81;27.82
11212;BME280;5663;50.864;12.096;2023-04-06T12:52:12;99583.09;;;18.89;27.28
11212;BME280;5663;50.864;12.096;2023-04-06T12:54:42;99541.69;;;18.80;27.75
11212;BME280;5663;50.864;12.096;2023-04-06T12:57:11;99572.72;;;19.08;29.29
11212;BME280;5663;50.864;12.096;2023-04-06T12:59:43;99568.47;;;19.17;27.66
11212;BME280;5663;50.864;12.096;2023-04-06T13:02:16;99565.34;;;19.23;26.36
11212;BME280;5663;50.864;12.096;2023-04-06T13:04:47;99549.97;;;19.07;27.37
11212;BME280;5663;50.864;12.096;2023-04-06T13:07:28;99559.16;;;19.13;28.25
11212;BME280;5663;50.864;12.096;2023-04-06T13:09:58;99533.84;;;19.10;28.08
11212;BME280;5663;50.864;12.096;2023-04-06T13:12:28;99547.91;;;19.32;26.12
11212;BME280;5663;50.864;12.096;2023-04-06T13:14:57;99546.03;;;19.43;26.59
11212;BME280;5663;50.864;12.096;2023-04-06T13:17:29;99552.00;;;19.45;27.13
11212;BME280;5663;50.864;12.096;2023-04-06T13:19:58;99552.72;;;19.48;27.56
11212;BME280;5663;50.864;12.096;2023-04-06T13:22:30;99541.88;;;19.51;27.18
11212;BME280;5663;50.864;12.096;2023-04-06T13:25:00;99545.38;;;19.51;27.02